Time;durP1;ratioP1;P1;durP2;ratioP2;P2;SDS_P1;SDS_P2;PMS_P1;PMS_P2;Temp;Humidity;BMP_temperature;BMP_pressure;BME280_temperature;BME280_humidity;BME280_pressure;Samples;Min_cycle;Max_cycle;Signal;HPM_P1;HPM_P2
2023/03/12 00:01:33;;;;;;;5.53;2.33;;;5.50;70.60;;;;;;5115488;28;20024;-71
2023/03/12 00:04:02;;;;;;;5.45;2.40;;;5.50;70.30;;;;;;5115324;28;20083;-71
2023/03/12 00:06:28;;;;;;;4.07;2.08;;;5.50;70.70;;;;;;5115248;28;20024;-71
2023/03/12 00:08:54;;;;;;;3.85;1.95;;;5.50;70.90;;;;;;5115138;28;20051;-71
2023/03/12 00:11:20;;;;;;;7.90;2.25;;;5.40;70.10;;;;;;5114297;28;20028;-71
2023/03/12 00:13:53;;;;;;;3.17;2.05;;;5.40;69.60;;;;;;5115120;28;20035;-71
2023/03/12 00:16:19;;;;;;;5.80;1.80;;;5.50;70.60;;;;;;5115035;28;20032;-71
2023/03/12 00:18:48;;;;;;;4.60;1.90;;;5.40;71.10;;;;;;5115011;28;20024;-71
2023/03/12 00:21:14;;;;;;;3.55;2.00;;;5.40;71.30;;;;;;5114111;28;20035;-71
2023/03/12 00:23:39;;;;;;;4.47;2.55;;;5.40;71.10;;;;;;5114938;28;20028;-71
2023/03/12 00:26:11;;;;;;;4.40;1.90;;;5.40;71.20;;;;;;5114871;28;20032;-71
2023/03/12 00:28:37;;;;;;;5.50;1.73;;;5.40;70.70;;;;;;5114917;28;20080;-71
2023/03/12 00:31:12;;;;;;;4.28;2.10;;;5.30;70.90;;;;;;5114786;28;20025;-71
2023/03/12 00:33:37;;;;;;;5.10;2.25;;;5.20;71.30;;;;;;5114781;28;20052;-71
2023/03/12 00:36:03;;;;;;;4.60;2.30;;;5.20;71.60;;;;;;5114725;28;20054;-71
2023/03/12 00:38:29;;;;;;;5.97;2.00;;;5.20;71.60;;;;;;5114647;28;20016;-71
2023/03/12 00:40:55;;;;;;;2.83;1.73;;;5.20;71.30;;;;;;5114585;28;20066;-71
2023/03/12 00:43:20;;;;;;;6.28;1.92;;;5.30;71.10;;;;;;5114241;28;20048;-71
2023/03/12 00:45:46;;;;;;;3.15;1.77;;;5.30;71.60;;;;;;5114624;28;20032;-71
2023/03/12 00:48:12;;;;;;;6.50;2.10;;;5.30;71.60;;;;;;5114457;28;20047;-71
2023/03/12 00:50:37;;;;;;;3.85;2.30;;;5.30;71.40;;;;;;5114453;28;20028;-71
2023/03/12 00:53:03;;;;;;;2.55;1.70;;;5.20;71.10;;;;;;5114348;28;20070;-71
2023/03/12 00:55:29;;;;;;;3.40;2.10;;;5.30;70.90;;;;;;5114251;28;20028;-71
2023/03/12 00:57:54;;;;;;;4.43;2.38;;;5.30;70.80;;;;;;5114257;28;20024;-71
2023/03/12 01:00:21;;;;;;;7.03;1.92;;;5.30;71.20;;;;;;5114215;28;20020;-71
2023/03/12 01:02:46;;;;;;;4.82;1.92;;;5.30;70.30;;;;;;5114209;28;20020;-71
2023/03/12 01:05:13;;;;;;;4.90;2.10;;;5.30;71.00;;;;;;5113219;28;20055;-71
2023/03/12 01:07:39;;;;;;;4.38;1.67;;;5.30;70.90;;;;;;5113045;28;20036;-71
2023/03/12 01:10:06;;;;;;;2.30;1.73;;;5.30;70.60;;;;;;5112960;28;20107;-71
2023/03/12 01:12:31;;;;;;;3.60;1.70;;;5.20;70.50;;;;;;5114049;28;20032;-71
2023/03/12 01:14:57;;;;;;;4.00;2.08;;;5.30;70.60;;;;;;5113992;28;20035;-71
2023/03/12 01:17:23;;;;;;;3.75;1.67;;;5.30;70.00;;;;;;5113871;28;20405;-71
2023/03/12 01:19:48;;;;;;;4.20;1.55;;;5.20;69.40;;;;;;5113945;28;20055;-71
2023/03/12 01:22:14;;;;;;;4.68;1.73;;;5.20;70.20;;;;;;5113879;28;20032;-71
2023/03/12 01:24:40;;;;;;;2.78;1.48;;;5.20;69.80;;;;;;5112992;28;20094;-71
2023/03/12 01:27:05;;;;;;;3.50;2.00;;;5.20;70.60;;;;;;5113825;28;20111;-71
2023/03/12 01:29:31;;;;;;;5.10;1.80;;;5.20;70.30;;;;;;5113768;28;20091;-71
2023/03/12 01:31:56;;;;;;;3.33;1.77;;;5.20;70.30;;;;;;5113747;28;20032;-71
2023/03/12 01:34:22;;;;;;;3.92;1.75;;;5.20;71.50;;;;;;5113717;28;20050;-71
2023/03/12 01:36:48;;;;;;;2.20;1.42;;;5.20;72.10;;;;;;5113616;28;20032;-71
2023/03/12 01:39:14;;;;;;;6.45;2.30;;;5.10;72.80;;;;;;5113672;28;20031;-71
2023/03/12 01:41:40;;;;;;;4.40;2.20;;;5.10;73.40;;;;;;5113625;28;20020;-71
2023/03/12 01:44:06;;;;;;;4.40;2.38;;;5.00;73.60;;;;;;5113475;28;20044;-71
2023/03/12 01:46:44;;;;;;;4.32;2.20;;;5.00;73.70;;;;;;5113567;28;20031;-71
2023/03/12 01:49:16;;;;;;;4.05;1.73;;;5.10;73.40;;;;;;5113584;28;20077;-71
2023/03/12 01:51:46;;;;;;;6.03;1.75;;;5.00;71.60;;;;;;5113282;28;20028;-71
2023/03/12 01:54:31;;;;;;;3.33;1.80;;;5.00;71.60;;;;;;5113510;28;20035;-71
2023/03/12 01:56:58;;;;;;;4.25;1.90;;;5.10;72.00;;;;;;5113513;28;20054;-71
2023/03/12 01:59:36;;;;;;;3.80;1.80;;;5.10;72.10;;;;;;5113437;28;20024;-71
2023/03/12 02:02:02;;;;;;;4.88;1.85;;;5.10;72.00;;;;;;5112556;28;20085;-71
2023/03/12 02:04:31;;;;;;;3.47;2.00;;;5.20;72.10;;;;;;5113412;28;20115;-71
2023/03/12 02:07:12;;;;;;;2.85;1.70;;;5.20;71.90;;;;;;5113400;28;20030;-71
2023/03/12 02:09:42;;;;;;;4.10;1.80;;;5.20;71.80;;;;;;5112415;28;20091;-71
2023/03/12 02:12:10;;;;;;;3.85;1.90;;;5.20;71.20;;;;;;5112337;28;20062;-71
2023/03/12 02:14:36;;;;;;;3.38;2.03;;;5.20;71.20;;;;;;5113318;28;20041;-71
2023/03/12 02:17:02;;;;;;;3.38;2.10;;;5.10;71.40;;;;;;5113328;28;20075;-71
2023/03/12 02:19:42;;;;;;;6.50;1.83;;;5.10;71.60;;;;;;5113291;28;20040;-70
2023/03/12 02:22:10;;;;;;;5.15;1.90;;;5.10;71.10;;;;;;5113306;28;20042;-71
2023/03/12 02:25:02;;;;;;;4.97;2.40;;;5.10;71.60;;;;;;5113233;28;20079;-71
2023/03/12 02:27:35;;;;;;;2.35;1.63;;;5.10;71.90;;;;;;5113287;28;20020;-71
2023/03/12 02:30:03;;;;;;;3.50;1.98;;;5.10;72.20;;;;;;5112210;28;20044;-71
2023/03/12 02:32:34;;;;;;;4.10;2.10;;;5.10;72.10;;;;;;5113119;28;20077;-71
2023/03/12 02:35:01;;;;;;;5.35;2.20;;;5.10;72.60;;;;;;5113215;28;20049;-71
2023/03/12 02:37:27;;;;;;;5.35;2.03;;;5.00;73.10;;;;;;5113175;28;20025;-71
2023/03/12 02:40:22;;;;;;;4.05;2.13;;;5.00;73.40;;;;;;5113062;28;20034;-71
2023/03/12 02:42:48;;;;;;;6.07;2.42;;;5.00;73.80;;;;;;5098723;28;20050;-72
2023/03/12 02:45:14;;;;;;;3.35;2.00;;;4.90;74.20;;;;;;5111923;28;20052;-71
2023/03/12 02:47:40;;;;;;;5.10;2.22;;;4.90;74.20;;;;;;5112991;28;20035;-71
2023/03/12 02:50:06;;;;;;;6.22;2.03;;;4.90;74.20;;;;;;5112054;28;20024;-71
2023/03/12 02:52:35;;;;;;;3.45;2.08;;;5.00;74.50;;;;;;5112906;28;20021;-71
2023/03/12 02:55:01;;;;;;;4.80;2.22;;;4.90;74.80;;;;;;5112947;28;20028;-71
2023/03/12 02:57:26;;;;;;;3.47;2.15;;;4.90;74.90;;;;;;5112996;28;20054;-71
2023/03/12 02:59:52;;;;;;;6.07;2.20;;;4.80;75.30;;;;;;5112073;28;20488;-71
2023/03/12 03:02:17;;;;;;;6.65;2.30;;;4.80;75.20;;;;;;5111800;28;20040;-71
2023/03/12 03:04:43;;;;;;;5.07;2.17;;;4.90;75.30;;;;;;5114905;28;20376;-71
2023/03/12 03:07:09;;;;;;;4.53;2.20;;;4.80;74.80;;;;;;5115563;28;20046;-71
2023/03/12 03:09:34;;;;;;;4.57;2.33;;;4.80;75.70;;;;;;5116367;28;20039;-71
2023/03/12 03:12:00;;;;;;;4.15;2.72;;;4.70;75.50;;;;;;5116323;28;20028;-71
2023/03/12 03:14:25;;;;;;;3.17;1.88;;;4.80;74.90;;;;;;5116333;28;20034;-71
2023/03/12 03:16:51;;;;;;;6.65;2.55;;;4.80;74.80;;;;;;5116174;28;20036;-71
2023/03/12 03:19:17;;;;;;;4.05;1.95;;;4.80;75.00;;;;;;5116326;28;20029;-71
2023/03/12 03:21:43;;;;;;;6.18;2.38;;;4.80;75.00;;;;;;5116174;28;20035;-71
2023/03/12 03:24:09;;;;;;;4.40;2.30;;;4.80;75.10;;;;;;5116241;28;20032;-71
2023/03/12 03:26:34;;;;;;;4.93;2.42;;;4.90;75.40;;;;;;5116074;28;20020;-71
2023/03/12 03:29:00;;;;;;;4.97;2.55;;;4.90;75.50;;;;;;5116038;28;20054;-71
2023/03/12 03:31:26;;;;;;;4.35;2.38;;;5.00;75.50;;;;;;5115998;28;20025;-71
2023/03/12 03:33:52;;;;;;;6.20;2.35;;;4.90;75.40;;;;;;5115899;28;20467;-71
2023/03/12 03:36:18;;;;;;;5.55;2.85;;;4.90;75.40;;;;;;5115797;28;20036;-71
2023/03/12 03:38:48;;;;;;;7.70;2.80;;;5.00;75.20;;;;;;5115834;28;20046;-71
2023/03/12 03:41:15;;;;;;;7.22;2.72;;;5.00;75.40;;;;;;5115870;28;20020;-71
2023/03/12 03:43:40;;;;;;;4.07;2.30;;;5.00;75.40;;;;;;5115542;28;20055;-71
2023/03/12 03:46:06;;;;;;;6.68;2.60;;;5.00;75.30;;;;;;5115679;28;20043;-71
2023/03/12 03:48:32;;;;;;;3.55;2.20;;;5.00;75.80;;;;;;5115634;28;20054;-71
2023/03/12 03:51:01;;;;;;;2.88;1.85;;;4.90;76.20;;;;;;5115606;28;20020;-71
2023/03/12 03:53:27;;;;;;;6.97;2.53;;;4.80;75.90;;;;;;5115589;28;20036;-71
2023/03/12 03:55:53;;;;;;;3.90;2.20;;;4.80;76.20;;;;;;5115429;28;20069;-71
2023/03/12 03:58:18;;;;;;;4.32;2.65;;;4.90;76.40;;;;;;5115592;28;20084;-71
2023/03/12 04:00:45;;;;;;;7.70;2.35;;;4.90;76.40;;;;;;5115419;28;20044;-71
2023/03/12 04:03:12;;;;;;;5.55;3.20;;;5.00;76.50;;;;;;5115351;28;20020;-71
2023/03/12 04:05:37;;;;;;;4.43;2.38;;;5.00;76.30;;;;;;5114505;28;20036;-71
2023/03/12 04:08:03;;;;;;;5.72;3.20;;;4.90;77.00;;;;;;5115183;28;20031;-71
2023/03/12 04:10:29;;;;;;;7.00;2.60;;;4.90;77.40;;;;;;5114203;28;20054;-71
2023/03/12 04:12:56;;;;;;;5.00;2.20;;;4.80;77.80;;;;;;5115182;28;20026;-71
2023/03/12 04:15:21;;;;;;;4.82;2.40;;;4.90;77.50;;;;;;5114803;28;20076;-71
2023/03/12 04:17:47;;;;;;;6.30;2.63;;;4.90;77.20;;;;;;5114991;28;20028;-71
2023/03/12 04:20:13;;;;;;;5.13;2.72;;;4.90;77.10;;;;;;5115021;28;20028;-71
2023/03/12 04:22:38;;;;;;;8.18;3.03;;;4.90;77.00;;;;;;5114956;28;20032;-71
2023/03/12 04:25:06;;;;;;;4.55;2.63;;;4.80;77.20;;;;;;5115057;28;20031;-71
2023/03/12 04:27:32;;;;;;;6.25;2.40;;;4.80;77.30;;;;;;5114858;28;20031;-71
2023/03/12 04:29:59;;;;;;;4.53;2.40;;;4.80;77.40;;;;;;5114856;28;20035;-71
2023/03/12 04:32:24;;;;;;;7.80;2.42;;;4.80;77.50;;;;;;5114808;28;20038;-71
2023/03/12 04:34:50;;;;;;;7.28;2.92;;;4.80;77.90;;;;;;5114851;28;20048;-71
2023/03/12 04:37:15;;;;;;;8.70;2.72;;;4.80;77.80;;;;;;5114597;28;20032;-71
2023/03/12 04:39:42;;;;;;;5.20;2.28;;;4.90;77.70;;;;;;5114647;28;20020;-71
2023/03/12 04:42:08;;;;;;;6.15;2.78;;;4.90;77.70;;;;;;5114643;28;20016;-71
2023/03/12 04:44:35;;;;;;;7.45;2.95;;;4.90;77.90;;;;;;5113291;28;20032;-71
2023/03/12 04:47:01;;;;;;;4.20;2.55;;;4.90;78.30;;;;;;5114498;28;20024;-71
2023/03/12 04:49:27;;;;;;;6.45;2.63;;;4.80;78.40;;;;;;5114476;28;20020;-71
2023/03/12 04:51:52;;;;;;;8.30;2.53;;;4.80;78.60;;;;;;5114395;28;20077;-71
2023/03/12 04:54:19;;;;;;;7.75;2.80;;;4.80;79.70;;;;;;5114375;28;20039;-71
2023/03/12 04:56:46;;;;;;;6.72;2.60;;;4.70;79.70;;;;;;5114402;28;20032;-71
2023/03/12 04:59:11;;;;;;;8.25;2.95;;;4.70;80.00;;;;;;5114299;28;20020;-71
2023/03/12 05:01:37;;;;;;;4.72;2.92;;;4.70;79.80;;;;;;5114272;28;20027;-71
2023/03/12 05:04:04;;;;;;;4.55;2.83;;;4.80;79.70;;;;;;5114210;28;20041;-71
2023/03/12 05:06:29;;;;;;;6.28;3.10;;;4.80;79.60;;;;;;5114145;28;20043;-71
2023/03/12 05:08:55;;;;;;;5.97;2.67;;;4.80;79.60;;;;;;5114027;28;20115;-71
2023/03/12 05:11:22;;;;;;;5.38;2.30;;;4.80;80.10;;;;;;5114085;28;20032;-71
2023/03/12 05:13:48;;;;;;;4.88;2.40;;;4.80;80.20;;;;;;5113004;28;20050;-71
2023/03/12 05:16:15;;;;;;;6.00;2.65;;;4.80;80.70;;;;;;5113918;28;20035;-71
2023/03/12 05:18:41;;;;;;;4.93;2.83;;;4.70;81.30;;;;;;5112949;28;20042;-71
2023/03/12 05:21:16;;;;;;;6.38;2.70;;;4.70;81.60;;;;;;5112893;28;20048;-71
2023/03/12 05:23:43;;;;;;;5.18;2.50;;;4.70;81.40;;;;;;5113890;28;20024;-71
2023/03/12 05:26:21;;;;;;;5.45;2.42;;;4.70;81.90;;;;;;5113212;28;20027;-71
2023/03/12 05:28:47;;;;;;;5.63;2.60;;;4.60;82.10;;;;;;5113875;28;20038;-71
2023/03/12 05:31:14;;;;;;;6.63;2.45;;;4.60;83.10;;;;;;5113800;28;20024;-72
2023/03/12 05:33:40;;;;;;;3.97;2.40;;;4.60;83.40;;;;;;5113731;28;20024;-71
2023/03/12 05:36:07;;;;;;;6.57;2.67;;;4.60;83.50;;;;;;5113662;28;20035;-71
2023/03/12 05:38:33;;;;;;;5.22;1.92;;;4.60;83.30;;;;;;5113685;28;20050;-71
2023/03/12 05:40:58;;;;;;;7.45;2.97;;;4.60;83.30;;;;;;5113661;28;20046;-71
2023/03/12 05:43:25;;;;;;;9.45;2.58;;;4.60;83.10;;;;;;5112476;28;20487;-72
2023/03/12 05:45:51;;;;;;;5.70;2.70;;;4.70;82.90;;;;;;5113423;28;20040;-71
2023/03/12 05:48:17;;;;;;;6.13;2.75;;;4.70;83.00;;;;;;5113595;28;20047;-71
2023/03/12 05:50:44;;;;;;;5.65;2.63;;;4.70;83.50;;;;;;5113678;28;20028;-72
2023/03/12 05:53:10;;;;;;;5.72;2.97;;;4.70;83.60;;;;;;5113591;28;20088;-72
2023/03/12 05:55:38;;;;;;;5.32;2.35;;;4.70;83.40;;;;;;5113428;28;20024;-71
2023/03/12 05:58:04;;;;;;;6.57;2.13;;;4.70;83.20;;;;;;5112532;28;20475;-71
2023/03/12 06:00:31;;;;;;;2.70;2.00;;;4.80;83.50;;;;;;5113446;28;20051;-71
2023/03/12 06:02:56;;;;;;;4.43;2.20;;;4.80;84.30;;;;;;5113456;28;20081;-71
2023/03/12 06:05:22;;;;;;;4.75;2.53;;;4.70;84.00;;;;;;5112470;28;20406;-71
2023/03/12 06:07:48;;;;;;;8.05;2.63;;;4.80;84.00;;;;;;5113318;28;20044;-71
2023/03/12 06:10:13;;;;;;;6.43;2.10;;;4.80;84.30;;;;;;5112522;28;20024;-71
2023/03/12 06:12:39;;;;;;;4.57;2.47;;;4.70;84.50;;;;;;5112326;28;20032;-72
2023/03/12 06:15:05;;;;;;;7.15;2.78;;;4.80;84.80;;;;;;5113361;28;20032;-71
2023/03/12 06:17:31;;;;;;;6.13;2.20;;;4.70;85.70;;;;;;5113174;28;20061;-71
2023/03/12 06:19:57;;;;;;;5.40;2.97;;;4.70;86.20;;;;;;5113306;28;20028;-72
2023/03/12 06:22:24;;;;;;;8.20;2.47;;;4.80;86.40;;;;;;5113273;28;20079;-71
2023/03/12 06:24:49;;;;;;;6.35;2.72;;;4.70;86.20;;;;;;5113226;28;20110;-71
2023/03/12 06:27:15;;;;;;;5.90;2.58;;;4.80;86.90;;;;;;5113229;28;20028;-71
2023/03/12 06:29:41;;;;;;;4.72;2.55;;;4.80;86.90;;;;;;5112204;28;20032;-71
2023/03/12 06:32:07;;;;;;;4.45;1.90;;;4.80;86.80;;;;;;5113141;28;20044;-71
2023/03/12 06:34:33;;;;;;;5.40;2.20;;;4.80;88.10;;;;;;5113155;28;20028;-71
2023/03/12 06:36:58;;;;;;;6.55;2.97;;;4.80;88.80;;;;;;5113462;28;20074;-71
2023/03/12 06:39:24;;;;;;;4.78;2.65;;;4.90;89.40;;;;;;5116017;28;20024;-71
2023/03/12 06:41:50;;;;;;;3.58;2.60;;;4.80;89.80;;;;;;5116981;28;20049;-71
2023/03/12 06:44:15;;;;;;;3.42;2.22;;;4.80;90.20;;;;;;5116748;28;20044;-72
2023/03/12 06:46:43;;;;;;;5.10;2.80;;;4.70;90.40;;;;;;5116884;28;20039;-71
2023/03/12 06:49:09;;;;;;;5.43;2.60;;;4.60;90.80;;;;;;5115984;28;20028;-71
2023/03/12 06:51:35;;;;;;;2.85;1.60;;;4.70;90.70;;;;;;5115759;28;20039;-71
2023/03/12 06:54:01;;;;;;;6.13;2.60;;;4.70;91.30;;;;;;5115787;28;20024;-71
2023/03/12 06:56:28;;;;;;;6.72;2.05;;;4.70;92.00;;;;;;5115736;28;20024;-71
2023/03/12 06:58:54;;;;;;;10.45;3.10;;;4.60;92.60;;;;;;5116609;28;20023;-71
2023/03/12 07:01:19;;;;;;;7.65;2.95;;;4.60;93.20;;;;;;5116568;28;20028;-71
2023/03/12 07:03:46;;;;;;;7.15;2.92;;;4.60;93.50;;;;;;5116565;28;20035;-72
2023/03/12 07:06:17;;;;;;;9.55;3.90;;;4.60;94.20;;;;;;5116506;28;20092;-71
2023/03/12 07:08:43;;;;;;;9.63;4.60;;;4.60;94.30;;;;;;5116424;28;20020;-71
2023/03/12 07:11:09;;;;;;;6.95;3.20;;;4.70;94.50;;;;;;5115566;28;20035;-71
2023/03/12 07:13:35;;;;;;;6.97;3.50;;;4.70;94.70;;;;;;5116354;28;20107;-71
2023/03/12 07:16:01;;;;;;;4.78;3.13;;;4.60;95.00;;;;;;5116235;28;20039;-71
2023/03/12 07:18:26;;;;;;;3.85;2.20;;;4.60;95.50;;;;;;5115231;28;20016;-71
2023/03/12 07:20:53;;;;;;;10.80;4.47;;;4.60;96.00;;;;;;5116220;28;20038;-71
2023/03/12 07:23:19;;;;;;;10.25;3.08;;;4.70;95.80;;;;;;5116171;28;20028;-72
2023/03/12 07:25:46;;;;;;;8.65;3.47;;;4.60;96.10;;;;;;5116129;28;20035;-72
2023/03/12 07:28:13;;;;;;;8.00;3.63;;;4.70;96.00;;;;;;5116062;28;20020;-71
2023/03/12 07:30:39;;;;;;;7.60;2.60;;;4.70;96.40;;;;;;5115056;28;20036;-71
2023/03/12 07:33:07;;;;;;;9.73;3.75;;;4.70;96.50;;;;;;5115977;28;20079;-72
2023/03/12 07:35:33;;;;;;;7.13;2.90;;;4.70;96.70;;;;;;5115855;28;20528;-71
2023/03/12 07:38:00;;;;;;;5.68;3.22;;;4.70;96.90;;;;;;5115898;28;20035;-72
2023/03/12 07:40:26;;;;;;;7.18;3.67;;;4.70;96.80;;;;;;5115833;28;20044;-72
2023/03/12 07:42:52;;;;;;;6.18;2.22;;;4.80;97.10;;;;;;5114880;28;20031;-72
2023/03/12 07:45:18;;;;;;;7.55;2.70;;;4.70;97.40;;;;;;5115551;28;20086;-71
2023/03/12 07:47:44;;;;;;;5.60;3.00;;;4.70;97.50;;;;;;5115682;28;20106;-71
2023/03/12 07:50:10;;;;;;;6.85;4.25;;;4.70;97.60;;;;;;5114966;28;20054;-72
2023/03/12 07:52:36;;;;;;;6.63;3.05;;;4.80;97.70;;;;;;5115618;28;20483;-71
2023/03/12 07:55:02;;;;;;;5.88;3.30;;;4.80;97.90;;;;;;5114622;28;20035;-72
2023/03/12 07:57:28;;;;;;;6.20;2.78;;;4.70;98.40;;;;;;5115444;28;20035;-72
2023/03/12 07:59:53;;;;;;;6.32;3.42;;;4.70;98.70;;;;;;5115430;28;20024;-71
2023/03/12 08:02:19;;;;;;;1.98;1.65;;;4.60;99.40;;;;;;5115439;28;20035;-72
2023/03/12 08:04:45;;;;;;;9.20;3.67;;;4.60;99.90;;;;;;5115374;28;20012;-71
2023/03/12 08:07:11;;;;;;;6.50;3.50;;;4.70;99.90;;;;;;5115438;28;20024;-72
2023/03/12 08:09:37;;;;;;;3.95;2.17;;;4.70;99.90;;;;;;5115203;28;20088;-72
2023/03/12 08:12:04;;;;;;;5.40;3.10;;;4.70;99.90;;;;;;5114355;28;20028;-71
2023/03/12 08:14:30;;;;;;;5.78;3.38;;;4.70;99.90;;;;;;5114166;28;20497;-72
2023/03/12 08:16:57;;;;;;;7.25;3.05;;;4.80;99.90;;;;;;5115064;28;20020;-71
2023/03/12 08:19:23;;;;;;;7.57;3.22;;;4.80;99.90;;;;;;5115166;28;20442;-72
2023/03/12 08:21:49;;;;;;;9.85;3.75;;;4.80;99.90;;;;;;5115015;28;20070;-72
2023/03/12 08:24:15;;;;;;;6.55;3.60;;;4.80;99.90;;;;;;5115122;28;20024;-72
2023/03/12 08:26:41;;;;;;;10.63;4.18;;;4.90;99.90;;;;;;5114016;28;20036;-72
2023/03/12 08:29:06;;;;;;;6.22;2.88;;;4.90;99.90;;;;;;5114918;28;20032;-72
2023/03/12 08:31:32;;;;;;;6.75;2.92;;;5.00;99.90;;;;;;5114863;28;20036;-71
2023/03/12 08:33:57;;;;;;;8.27;3.17;;;5.00;99.90;;;;;;5114769;28;20028;-72
2023/03/12 08:36:23;;;;;;;7.38;3.20;;;5.00;99.90;;;;;;5114671;28;20092;-72
2023/03/12 08:38:49;;;;;;;5.47;2.30;;;5.00;99.90;;;;;;5114832;28;20021;-72
2023/03/12 08:41:14;;;;;;;8.45;3.03;;;5.00;99.90;;;;;;5114669;28;20153;-72
2023/03/12 08:43:40;;;;;;;7.07;3.55;;;5.10;99.90;;;;;;5113532;28;20031;-72
2023/03/12 08:46:05;;;;;;;6.28;3.33;;;5.10;99.90;;;;;;5114639;28;20058;-71
2023/03/12 08:48:31;;;;;;;8.68;3.45;;;5.20;99.90;;;;;;5114502;28;20107;-71
2023/03/12 08:50:59;;;;;;;6.18;3.65;;;5.20;99.90;;;;;;5113484;28;20040;-71
2023/03/12 08:53:25;;;;;;;6.20;3.38;;;5.20;99.90;;;;;;5113528;28;20024;-71
2023/03/12 08:55:53;;;;;;;6.78;3.38;;;5.30;99.90;;;;;;5114289;28;20031;-72
2023/03/12 08:58:19;;;;;;;7.55;3.55;;;5.30;99.90;;;;;;5114343;28;20027;-71
2023/03/12 09:00:44;;;;;;;9.60;4.13;;;5.30;99.90;;;;;;5113372;28;20083;-72
2023/03/12 09:03:13;;;;;;;5.03;3.20;;;5.30;99.90;;;;;;5114283;28;20036;-71
2023/03/12 09:05:42;;;;;;;9.63;4.43;;;5.40;99.90;;;;;;5114200;28;20016;-71
2023/03/12 09:08:08;;;;;;;7.32;4.30;;;5.40;99.90;;;;;;5096891;28;20509;-71
2023/03/12 09:10:36;;;;;;;7.38;4.18;;;5.40;99.90;;;;;;5114136;28;20024;-71
2023/03/12 09:13:03;;;;;;;8.07;3.72;;;5.50;99.90;;;;;;5114118;28;20028;-71
2023/03/12 09:15:28;;;;;;;7.38;3.97;;;5.50;99.90;;;;;;5114068;28;20024;-72
2023/03/12 09:17:54;;;;;;;10.07;4.45;;;5.60;99.90;;;;;;5113880;28;20032;-72
2023/03/12 09:20:20;;;;;;;7.88;4.38;;;5.60;99.90;;;;;;5113907;28;20034;-72
2023/03/12 09:22:47;;;;;;;6.95;3.67;;;5.60;99.90;;;;;;5113868;28;20028;-72
2023/03/12 09:25:12;;;;;;;12.00;5.53;;;5.70;99.90;;;;;;5112946;28;20027;-71
2023/03/12 09:27:47;;;;;;;10.10;4.85;;;5.70;99.90;;;;;;5113858;28;20032;-71
2023/03/12 09:30:16;;;;;;;8.13;4.22;;;5.70;99.90;;;;;;5113868;28;20027;-71
2023/03/12 09:32:44;;;;;;;10.23;5.50;;;5.80;99.90;;;;;;5113741;28;20076;-72
2023/03/12 09:35:11;;;;;;;11.88;5.32;;;5.90;99.90;;;;;;5113737;28;20055;-72
2023/03/12 09:37:36;;;;;;;10.95;5.50;;;5.90;99.90;;;;;;5113646;28;20024;-72
2023/03/12 09:40:06;;;;;;;10.82;5.07;;;6.00;99.90;;;;;;5113813;28;20016;-72
2023/03/12 09:42:55;;;;;;;11.23;5.95;;;6.10;99.90;;;;;;5113938;28;20051;-71
2023/03/12 09:45:27;;;;;;;11.25;5.88;;;6.20;99.90;;;;;;5102688;28;20036;-72
2023/03/12 09:47:55;;;;;;;13.48;6.05;;;6.20;99.90;;;;;;5113588;28;20024;-71
2023/03/12 09:50:27;;;;;;;13.68;6.70;;;6.30;99.90;;;;;;5113544;28;20024;-71
2023/03/12 09:52:58;;;;;;;16.10;6.97;;;6.30;99.90;;;;;;5113564;28;20054;-71
2023/03/12 09:55:24;;;;;;;13.52;6.43;;;6.40;99.90;;;;;;5113561;28;20020;-71
2023/03/12 09:57:51;;;;;;;15.60;7.20;;;6.50;99.90;;;;;;5113453;28;20051;-71
2023/03/12 10:00:20;;;;;;;17.58;7.60;;;6.60;99.90;;;;;;5113624;28;20019;-72
2023/03/12 10:02:58;;;;;;;15.93;6.43;;;6.60;99.90;;;;;;5113584;28;20028;-72
2023/03/12 10:05:33;;;;;;;18.92;8.93;;;6.70;99.90;;;;;;5113485;28;20016;-71
2023/03/12 10:08:20;;;;;;;16.45;7.30;;;6.80;99.90;;;;;;5113503;28;20038;-72
2023/03/12 10:11:11;;;;;;;15.10;7.18;;;6.80;99.90;;;;;;5113431;28;20028;-71
2023/03/12 10:13:59;;;;;;;16.20;7.95;;;6.90;99.90;;;;;;5085532;28;20096;-71
2023/03/12 10:16:49;;;;;;;20.38;8.63;;;7.00;99.90;;;;;;5117568;28;20030;-71
2023/03/12 10:19:21;;;;;;;20.52;9.88;;;7.10;99.90;;;;;;5117599;28;20020;-71
2023/03/12 10:21:59;;;;;;;18.70;9.03;;;7.20;99.90;;;;;;5117404;28;20024;-72
2023/03/12 10:24:47;;;;;;;26.48;12.45;;;7.30;99.90;;;;;;5117490;28;20345;-72
2023/03/12 10:27:15;;;;;;;21.48;9.52;;;7.30;99.90;;;;;;5079074;28;20032;-71
2023/03/12 10:29:44;;;;;;;19.88;8.60;;;7.40;99.90;;;;;;5116202;28;20024;-71
2023/03/12 10:32:10;;;;;;;21.73;9.13;;;7.50;99.90;;;;;;5117310;28;20016;-71
2023/03/12 10:34:45;;;;;;;22.75;9.90;;;7.60;99.90;;;;;;5117103;28;20028;-72
2023/03/12 10:37:20;;;;;;;22.48;9.35;;;7.70;99.90;;;;;;5116046;28;20020;-72
2023/03/12 10:39:47;;;;;;;18.50;8.38;;;7.80;99.90;;;;;;5117126;28;20016;-72
2023/03/12 10:42:19;;;;;;;22.10;10.57;;;7.90;99.90;;;;;;5117136;28;20024;-71
2023/03/12 10:44:49;;;;;;;22.60;10.43;;;8.00;99.90;;;;;;5116823;28;20064;-72
2023/03/12 10:47:35;;;;;;;22.45;12.07;;;8.10;99.90;;;;;;5116944;28;20024;-72
2023/03/12 10:50:21;;;;;;;20.67;9.82;;;8.20;99.90;;;;;;5116602;28;20043;-71
2023/03/12 10:52:49;;;;;;;23.73;8.90;;;8.30;99.90;;;;;;5116799;28;20032;-72
2023/03/12 10:55:18;;;;;;;22.83;9.20;;;8.40;99.90;;;;;;5115777;28;20032;-72
2023/03/12 10:57:43;;;;;;;26.88;9.38;;;8.40;99.90;;;;;;5116606;28;20035;-72
2023/03/12 11:00:16;;;;;;;25.00;9.98;;;8.50;99.90;;;;;;5116624;28;20032;-72
2023/03/12 11:02:45;;;;;;;26.13;11.05;;;8.60;99.90;;;;;;5116623;28;20031;-72
2023/03/12 11:05:33;;;;;;;28.48;11.68;;;8.60;99.90;;;;;;5116687;28;20024;-72
2023/03/12 11:08:00;;;;;;;25.08;12.50;;;8.70;99.90;;;;;;5116475;28;20066;-72
2023/03/12 11:10:42;;;;;;;29.02;12.20;;;8.80;99.90;;;;;;5116470;28;20067;-71
2023/03/12 11:13:38;;;;;;;24.85;10.68;;;8.80;99.90;;;;;;5116603;28;20016;-72
2023/03/12 11:16:15;;;;;;;20.20;9.98;;;8.90;99.90;;;;;;5116301;28;20028;-72
2023/03/12 11:18:58;;;;;;;30.63;11.05;;;8.90;99.90;;;;;;5116246;28;20020;-71
2023/03/12 11:21:24;;;;;;;24.48;10.25;;;9.00;99.90;;;;;;5116291;28;20012;-71
2023/03/12 11:23:56;;;;;;;26.98;10.35;;;9.00;99.90;;;;;;5115110;28;20487;-71
2023/03/12 11:26:27;;;;;;;29.30;9.00;;;9.10;99.90;;;;;;5116116;28;20039;-71
2023/03/12 11:29:17;;;;;;;20.88;8.90;;;9.10;99.90;;;;;;5115310;28;20020;-72
2023/03/12 11:32:21;;;;;;;18.10;9.35;;;9.20;99.90;;;;;;5116069;28;20047;-72
2023/03/12 11:34:48;;;;;;;22.20;8.98;;;9.30;99.90;;;;;;5115041;28;20028;-71
2023/03/12 11:37:23;;;;;;;19.52;8.82;;;9.30;99.90;;;;;;5115871;28;20024;-71
2023/03/12 11:40:08;;;;;;;24.73;9.25;;;9.30;99.90;;;;;;5115851;28;20028;-71
2023/03/12 11:43:11;;;;;;;19.90;8.93;;;9.40;99.90;;;;;;5115876;28;20467;-71
2023/03/12 11:46:15;;;;;;;;;;;9.50;99.90;;;;;;5116032;28;20047;-71
2023/03/12 11:49:00;;;;;;;24.23;8.57;;;9.60;99.90;;;;;;5056847;28;20303;-72
2023/03/12 11:51:51;;;;;;;24.92;10.93;;;9.60;99.90;;;;;;5073374;28;20045;-72
2023/03/12 11:54:29;;;;;;;24.40;10.60;;;9.60;99.90;;;;;;5105904;28;20036;-71
2023/03/12 11:57:00;;;;;;;21.23;9.35;;;9.70;99.90;;;;;;5115511;28;20036;-71
2023/03/12 12:00:11;;;;;;;21.73;7.85;;;9.70;99.90;;;;;;5115567;28;20414;-71
2023/03/12 12:03:01;;;;;;;15.60;7.05;;;9.80;99.90;;;;;;5114523;28;20020;-72
2023/03/12 12:05:46;;;;;;;22.77;7.63;;;9.70;99.90;;;;;;5115586;28;20039;-72
2023/03/12 12:08:22;;;;;;;21.75;8.32;;;9.80;99.90;;;;;;5115236;28;20024;-71
2023/03/12 12:10:52;;;;;;;20.92;7.78;;;9.80;99.90;;;;;;5115309;28;20036;-72
2023/03/12 12:13:17;;;;;;;21.08;9.00;;;9.90;99.90;;;;;;5115294;28;20035;-72
2023/03/12 12:16:18;;;;;;;23.27;11.60;;;9.90;99.90;;;;;;5115058;28;20024;-72
2023/03/12 12:18:53;;;;;;;21.38;8.20;;;9.90;99.90;;;;;;5083859;28;20036;-72
2023/03/12 12:22:02;;;;;;;29.85;8.90;;;10.00;99.90;;;;;;5115208;28;20043;-72
2023/03/12 12:24:46;;;;;;;23.45;7.78;;;10.10;99.90;;;;;;5115170;28;20016;-72
2023/03/12 12:27:25;;;;;;;29.52;9.30;;;10.20;99.90;;;;;;5114930;28;20032;-72
2023/03/12 12:30:24;;;;;;;25.80;9.50;;;10.30;99.90;;;;;;5114908;28;20024;-71
2023/03/12 12:33:14;;;;;;;21.60;8.50;;;10.40;99.90;;;;;;5114978;28;20039;-71
2023/03/12 12:35:42;;;;;;;20.30;7.75;;;10.50;99.90;;;;;;5114694;28;20035;-71
2023/03/12 12:38:15;;;;;;;29.45;7.75;;;10.60;99.90;;;;;;5114742;28;20031;-71
2023/03/12 12:40:55;;;;;;;26.35;8.40;;;10.60;99.90;;;;;;5114696;28;20044;-71
2023/03/12 12:43:35;;;;;;;22.92;6.85;;;10.60;99.90;;;;;;5114716;28;20012;-71
2023/03/12 12:46:05;;;;;;;23.00;7.13;;;10.70;99.90;;;;;;5114466;28;20039;-71
2023/03/12 12:48:54;;;;;;;21.90;8.30;;;10.70;99.90;;;;;;5114598;28;20035;-71
2023/03/12 12:51:24;;;;;;;22.83;6.05;;;10.80;99.90;;;;;;5100350;28;20063;-71
2023/03/12 12:53:49;;;;;;;19.00;6.22;;;10.90;99.90;;;;;;5114500;28;20036;-71
2023/03/12 12:56:28;;;;;;;21.52;5.88;;;10.90;99.90;;;;;;5113310;28;20040;-71
2023/03/12 12:59:02;;;;;;;22.60;6.03;;;10.90;99.90;;;;;;5114475;28;20020;-71
2023/03/12 13:01:29;;;;;;;18.98;5.32;;;10.90;99.90;;;;;;5114323;28;20015;-71
2023/03/12 13:04:12;;;;;;;19.70;5.07;;;10.90;99.90;;;;;;5113462;28;20031;-71
2023/03/12 13:06:56;;;;;;;14.50;4.85;;;10.80;99.90;;;;;;5114394;28;20017;-71